Royal City, Washington
Current Conditions -  °F | °C
As of 9:52 PM on Wednesday 22 Oct 2014 (Local Time) from KMWH Reporting Station
Overcast Overcast  
Wind Chill: 57°   Ceiling: 10000
Heat Index: 57°   Visibility: 10mi
Dew Point: 50°   Wind: 18mph
Humidity: 77%   Direction: 170°S
Pressure: 29.68"   Gusts: NA
Location:  46.9°N, 119.63°W
Report Text: KMWH 230452Z AUTO 17016KT 10SM SCT080 OVC100 14/10 A2968 RMK AO2 SLP051 T01390100 TSNO
Loading
Personal Weather Stations






























Interactive Weather Map
Tropical Storm Tracking
New forecast layout! Learn more

10-Day Weather Forecast

Advertisements
Track Severe Weather on mobile